sensor_id;sensor_type;location;lat;lon;timestamp;temperature;humidity
38263;DHT22;24054;50.128;19.730;2022-07-03T00:01:41;25.30;64.40
38263;DHT22;24054;50.128;19.730;2022-07-03T00:04:08;25.30;64.40
38263;DHT22;24054;50.128;19.730;2022-07-03T00:06:35;25.30;64.40
38263;DHT22;24054;50.128;19.730;2022-07-03T00:09:03;25.30;64.40
38263;DHT22;24054;50.128;19.730;2022-07-03T00:11:31;25.30;64.40
38263;DHT22;24054;50.128;19.730;2022-07-03T00:13:58;25.30;64.40
38263;DHT22;24054;50.128;19.730;2022-07-03T00:16:25;25.30;64.90
38263;DHT22;24054;50.128;19.730;2022-07-03T00:18:54;25.30;64.30
38263;DHT22;24054;50.128;19.730;2022-07-03T00:21:29;25.30;64.30
38263;DHT22;24054;50.128;19.730;2022-07-03T00:24:02;25.30;64.30
38263;DHT22;24054;50.128;19.730;2022-07-03T00:26:33;25.20;64.20
38263;DHT22;24054;50.128;19.730;2022-07-03T00:29:01;25.20;64.20
38263;DHT22;24054;50.128;19.730;2022-07-03T00:31:31;25.20;64.30
38263;DHT22;24054;50.128;19.730;2022-07-03T00:34:03;25.20;64.30
38263;DHT22;24054;50.128;19.730;2022-07-03T00:36:35;25.20;64.30
38263;DHT22;24054;50.128;19.730;2022-07-03T00:39:04;25.20;64.20
38263;DHT22;24054;50.128;19.730;2022-07-03T00:41:33;25.30;64.30
38263;DHT22;24054;50.128;19.730;2022-07-03T00:43:59;25.20;64.20
38263;DHT22;24054;50.128;19.730;2022-07-03T00:46:27;25.20;64.20
38263;DHT22;24054;50.128;19.730;2022-07-03T00:48:56;25.20;64.20
38263;DHT22;24054;50.128;19.730;2022-07-03T00:51:26;25.20;64.30
38263;DHT22;24054;50.128;19.730;2022-07-03T00:53:56;25.20;64.20
38263;DHT22;24054;50.128;19.730;2022-07-03T00:56:26;25.20;64.20
38263;DHT22;24054;50.128;19.730;2022-07-03T00:58:55;25.20;64.20
38263;DHT22;24054;50.128;19.730;2022-07-03T01:01:25;25.20;64.20
38263;DHT22;24054;50.128;19.730;2022-07-03T01:04:07;25.20;64.20
38263;DHT22;24054;50.128;19.730;2022-07-03T01:06:42;25.20;64.20
38263;DHT22;24054;50.128;19.730;2022-07-03T01:09:14;25.20;64.20
38263;DHT22;24054;50.128;19.730;2022-07-03T01:11:48;25.20;64.20
38263;DHT22;24054;50.128;19.730;2022-07-03T01:14:27;25.10;64.20
38263;DHT22;24054;50.128;19.730;2022-07-03T01:16:58;25.10;64.10
38263;DHT22;24054;50.128;19.730;2022-07-03T01:19:43;25.10;64.10
38263;DHT22;24054;50.128;19.730;2022-07-03T01:22:31;25.20;64.10
38263;DHT22;24054;50.128;19.730;2022-07-03T01:25:14;25.20;64.10
38263;DHT22;24054;50.128;19.730;2022-07-03T01:27:53;25.10;64.10
38263;DHT22;24054;50.128;19.730;2022-07-03T01:30:22;25.10;64.10
38263;DHT22;24054;50.128;19.730;2022-07-03T01:32:57;25.20;64.10
38263;DHT22;24054;50.128;19.730;2022-07-03T01:35:27;25.10;64.10
38263;DHT22;24054;50.128;19.730;2022-07-03T01:37:55;25.10;64.00
38263;DHT22;24054;50.128;19.730;2022-07-03T01:40:23;25.10;64.00
38263;DHT22;24054;50.128;19.730;2022-07-03T01:42:55;25.10;64.00
38263;DHT22;24054;50.128;19.730;2022-07-03T01:45:23;25.10;64.00
38263;DHT22;24054;50.128;19.730;2022-07-03T01:47:54;25.10;64.00
38263;DHT22;24054;50.128;19.730;2022-07-03T01:50:23;25.10;64.00
38263;DHT22;24054;50.128;19.730;2022-07-03T01:52:51;25.10;64.10
38263;DHT22;24054;50.128;19.730;2022-07-03T01:55:19;25.10;64.00
38263;DHT22;24054;50.128;19.730;2022-07-03T01:57:49;25.10;64.00
38263;DHT22;24054;50.128;19.730;2022-07-03T02:00:19;25.10;64.00
38263;DHT22;24054;50.128;19.730;2022-07-03T02:02:54;25.10;64.00
38263;DHT22;24054;50.128;19.730;2022-07-03T02:05:31;25.10;64.00
38263;DHT22;24054;50.128;19.730;2022-07-03T02:08:06;25.10;64.10
38263;DHT22;24054;50.128;19.730;2022-07-03T02:10:39;25.10;64.00
38263;DHT22;24054;50.128;19.730;2022-07-03T02:13:08;25.10;64.70
38263;DHT22;24054;50.128;19.730;2022-07-03T02:15:43;25.10;64.10
38263;DHT22;24054;50.128;19.730;2022-07-03T02:18:15;25.00;64.00
38263;DHT22;24054;50.128;19.730;2022-07-03T02:20:48;25.10;64.00
38263;DHT22;24054;50.128;19.730;2022-07-03T02:23:21;25.10;64.10
38263;DHT22;24054;50.128;19.730;2022-07-03T02:25:51;25.00;64.60
38263;DHT22;24054;50.128;19.730;2022-07-03T02:28:28;25.00;64.00
38263;DHT22;24054;50.128;19.730;2022-07-03T02:31:02;25.10;64.10
38263;DHT22;24054;50.128;19.730;2022-07-03T02:33:31;25.00;64.00
38263;DHT22;24054;50.128;19.730;2022-07-03T02:36:00;25.00;64.00
38263;DHT22;24054;50.128;19.730;2022-07-03T02:38:27;25.10;64.00
38263;DHT22;24054;50.128;19.730;2022-07-03T02:40:59;25.00;64.00
38263;DHT22;24054;50.128;19.730;2022-07-03T02:43:36;25.00;64.00
38263;DHT22;24054;50.128;19.730;2022-07-03T02:46:10;25.00;64.00
38263;DHT22;24054;50.128;19.730;2022-07-03T02:48:56;25.00;64.00
38263;DHT22;24054;50.128;19.730;2022-07-03T02:51:36;25.00;64.00
38263;DHT22;24054;50.128;19.730;2022-07-03T02:54:09;25.00;64.00
38263;DHT22;24054;50.128;19.730;2022-07-03T02:56:46;25.00;64.00
38263;DHT22;24054;50.128;19.730;2022-07-03T02:59:26;25.00;64.00
38263;DHT22;24054;50.128;19.730;2022-07-03T03:02:07;25.00;64.00
38263;DHT22;24054;50.128;19.730;2022-07-03T03:04:43;25.00;64.00
38263;DHT22;24054;50.128;19.730;2022-07-03T03:07:14;25.00;64.10
38263;DHT22;24054;50.128;19.730;2022-07-03T03:09:43;25.00;64.10
38263;DHT22;24054;50.128;19.730;2022-07-03T03:12:12;25.00;64.00
38263;DHT22;24054;50.128;19.730;2022-07-03T03:14:40;25.00;64.00
38263;DHT22;24054;50.128;19.730;2022-07-03T03:17:10;25.00;64.10
38263;DHT22;24054;50.128;19.730;2022-07-03T03:19:40;25.00;64.10
38263;DHT22;24054;50.128;19.730;2022-07-03T03:22:16;24.90;64.00
38263;DHT22;24054;50.128;19.730;2022-07-03T03:24:50;25.00;64.10
38263;DHT22;24054;50.128;19.730;2022-07-03T03:27:18;25.00;64.10
38263;DHT22;24054;50.128;19.730;2022-07-03T03:29:45;25.00;64.10
38263;DHT22;24054;50.128;19.730;2022-07-03T03:32:15;25.00;64.10
38263;DHT22;24054;50.128;19.730;2022-07-03T03:34:43;24.90;64.00
38263;DHT22;24054;50.128;19.730;2022-07-03T03:37:12;25.00;64.10
38263;DHT22;24054;50.128;19.730;2022-07-03T03:39:39;25.00;64.10
38263;DHT22;24054;50.128;19.730;2022-07-03T03:42:06;25.00;64.10
38263;DHT22;24054;50.128;19.730;2022-07-03T03:44:33;25.00;64.10
38263;DHT22;24054;50.128;19.730;2022-07-03T03:47:01;24.90;64.10
38263;DHT22;24054;50.128;19.730;2022-07-03T03:49:29;24.90;64.10
38263;DHT22;24054;50.128;19.730;2022-07-03T03:51:56;24.90;64.10
38263;DHT22;24054;50.128;19.730;2022-07-03T03:54:23;24.90;64.10
38263;DHT22;24054;50.128;19.730;2022-07-03T03:56:50;24.90;64.10
38263;DHT22;24054;50.128;19.730;2022-07-03T03:59:17;24.90;64.10
38263;DHT22;24054;50.128;19.730;2022-07-03T04:01:44;25.00;64.10
38263;DHT22;24054;50.128;19.730;2022-07-03T04:04:11;24.90;64.10
38263;DHT22;24054;50.128;19.730;2022-07-03T04:06:44;24.90;64.10
38263;DHT22;24054;50.128;19.730;2022-07-03T04:09:11;24.90;64.10
38263;DHT22;24054;50.128;19.730;2022-07-03T04:11:38;24.90;64.10
38263;DHT22;24054;50.128;19.730;2022-07-03T04:14:05;24.90;64.20
38263;DHT22;24054;50.128;19.730;2022-07-03T04:16:33;24.90;64.10
38263;DHT22;24054;50.128;19.730;2022-07-03T04:19:01;24.90;64.20
38263;DHT22;24054;50.128;19.730;2022-07-03T04:21:28;24.90;64.20
38263;DHT22;24054;50.128;19.730;2022-07-03T04:23:56;24.90;64.20
38263;DHT22;24054;50.128;19.730;2022-07-03T04:26:23;24.90;64.80
38263;DHT22;24054;50.128;19.730;2022-07-03T04:28:50;24.90;64.20
38263;DHT22;24054;50.128;19.730;2022-07-03T04:31:17;24.90;64.20
38263;DHT22;24054;50.128;19.730;2022-07-03T04:33:44;24.90;64.20
38263;DHT22;24054;50.128;19.730;2022-07-03T04:36:11;24.90;64.20
38263;DHT22;24054;50.128;19.730;2022-07-03T04:38:38;24.90;64.20
38263;DHT22;24054;50.128;19.730;2022-07-03T04:41:06;24.90;64.20
38263;DHT22;24054;50.128;19.730;2022-07-03T04:43:33;24.90;64.30
38263;DHT22;24054;50.128;19.730;2022-07-03T04:46:00;24.90;64.20
38263;DHT22;24054;50.128;19.730;2022-07-03T04:48:28;24.90;64.30
38263;DHT22;24054;50.128;19.730;2022-07-03T04:50:55;24.90;64.30
38263;DHT22;24054;50.128;19.730;2022-07-03T04:53:22;24.90;64.30
38263;DHT22;24054;50.128;19.730;2022-07-03T04:55:49;24.90;64.30
38263;DHT22;24054;50.128;19.730;2022-07-03T04:58:18;24.90;64.30
38263;DHT22;24054;50.128;19.730;2022-07-03T05:00:45;24.90;64.30
38263;DHT22;24054;50.128;19.730;2022-07-03T05:03:12;24.90;64.30
38263;DHT22;24054;50.128;19.730;2022-07-03T05:05:39;24.90;64.30
38263;DHT22;24054;50.128;19.730;2022-07-03T05:08:06;24.90;64.30
38263;DHT22;24054;50.128;19.730;2022-07-03T05:10:33;24.90;64.30
38263;DHT22;24054;50.128;19.730;2022-07-03T05:13:00;24.90;64.30
38263;DHT22;24054;50.128;19.730;2022-07-03T05:15:29;24.90;64.30
38263;DHT22;24054;50.128;19.730;2022-07-03T05:17:56;24.90;64.40
38263;DHT22;24054;50.128;19.730;2022-07-03T05:20:23;24.90;64.40
38263;DHT22;24054;50.128;19.730;2022-07-03T05:22:54;24.90;64.40
38263;DHT22;24054;50.128;19.730;2022-07-03T05:25:22;24.90;64.40
38263;DHT22;24054;50.128;19.730;2022-07-03T05:27:50;24.90;64.40
38263;DHT22;24054;50.128;19.730;2022-07-03T05:30:18;24.90;64.40
38263;DHT22;24054;50.128;19.730;2022-07-03T05:32:47;24.90;64.40
38263;DHT22;24054;50.128;19.730;2022-07-03T05:35:14;24.90;64.40
38263;DHT22;24054;50.128;19.730;2022-07-03T05:37:41;24.90;64.40
38263;DHT22;24054;50.128;19.730;2022-07-03T05:40:09;24.90;64.40
38263;DHT22;24054;50.128;19.730;2022-07-03T05:42:36;24.90;64.40
38263;DHT22;24054;50.128;19.730;2022-07-03T05:45:04;24.90;64.40
38263;DHT22;24054;50.128;19.730;2022-07-03T05:47:31;24.90;65.00
38263;DHT22;24054;50.128;19.730;2022-07-03T05:50:00;24.90;64.50
38263;DHT22;24054;50.128;19.730;2022-07-03T05:52:27;24.90;64.50
38263;DHT22;24054;50.128;19.730;2022-07-03T05:54:53;24.90;64.50
38263;DHT22;24054;50.128;19.730;2022-07-03T05:57:20;24.90;64.50
38263;DHT22;24054;50.128;19.730;2022-07-03T05:59:47;24.90;64.50
38263;DHT22;24054;50.128;19.730;2022-07-03T06:02:14;24.90;64.50
38263;DHT22;24054;50.128;19.730;2022-07-03T06:04:41;24.90;64.50
38263;DHT22;24054;50.128;19.730;2022-07-03T06:07:09;24.90;64.50
38263;DHT22;24054;50.128;19.730;2022-07-03T06:09:36;24.90;64.50
38263;DHT22;24054;50.128;19.730;2022-07-03T06:12:04;24.90;64.50
38263;DHT22;24054;50.128;19.730;2022-07-03T06:14:31;24.90;64.50
38263;DHT22;24054;50.128;19.730;2022-07-03T06:16:58;24.90;64.60
38263;DHT22;24054;50.128;19.730;2022-07-03T06:19:25;24.90;64.50
38263;DHT22;24054;50.128;19.730;2022-07-03T06:21:52;24.90;64.50
38263;DHT22;24054;50.128;19.730;2022-07-03T06:24:20;24.90;64.60
38263;DHT22;24054;50.128;19.730;2022-07-03T06:26:47;24.90;64.50
38263;DHT22;24054;50.128;19.730;2022-07-03T06:29:14;24.90;64.60
38263;DHT22;24054;50.128;19.730;2022-07-03T06:31:41;24.90;64.60
38263;DHT22;24054;50.128;19.730;2022-07-03T06:34:08;24.90;64.60
38263;DHT22;24054;50.128;19.730;2022-07-03T06:36:35;24.90;64.60
38263;DHT22;24054;50.128;19.730;2022-07-03T06:39:02;24.90;64.60
38263;DHT22;24054;50.128;19.730;2022-07-03T06:41:30;24.90;64.50
38263;DHT22;24054;50.128;19.730;2022-07-03T06:43:57;24.90;64.50
38263;DHT22;24054;50.128;19.730;2022-07-03T06:46:24;25.00;64.50
38263;DHT22;24054;50.128;19.730;2022-07-03T06:48:51;25.00;64.70
38263;DHT22;24054;50.128;19.730;2022-07-03T06:51:18;25.00;64.60
38263;DHT22;24054;50.128;19.730;2022-07-03T06:53:45;25.00;64.70
38263;DHT22;24054;50.128;19.730;2022-07-03T06:56:12;25.10;64.80
38263;DHT22;24054;50.128;19.730;2022-07-03T06:58:40;25.10;64.90
38263;DHT22;24054;50.128;19.730;2022-07-03T07:01:07;25.10;65.10
38263;DHT22;24054;50.128;19.730;2022-07-03T07:03:34;25.10;65.10
38263;DHT22;24054;50.128;19.730;2022-07-03T07:06:01;25.20;65.20
38263;DHT22;24054;50.128;19.730;2022-07-03T07:08:28;25.20;65.30
38263;DHT22;24054;50.128;19.730;2022-07-03T07:10:55;25.20;65.30
38263;DHT22;24054;50.128;19.730;2022-07-03T07:13:22;25.20;65.40
38263;DHT22;24054;50.128;19.730;2022-07-03T07:15:50;25.20;65.40
38263;DHT22;24054;50.128;19.730;2022-07-03T07:18:17;25.30;65.50
38263;DHT22;24054;50.128;19.730;2022-07-03T07:20:45;25.30;65.80
38263;DHT22;24054;50.128;19.730;2022-07-03T07:23:12;25.30;65.90
38263;DHT22;24054;50.128;19.730;2022-07-03T07:25:39;25.30;66.00
38263;DHT22;24054;50.128;19.730;2022-07-03T07:28:06;25.30;66.00
38263;DHT22;24054;50.128;19.730;2022-07-03T07:30:34;25.30;66.20
38263;DHT22;24054;50.128;19.730;2022-07-03T07:33:02;25.30;66.20
38263;DHT22;24054;50.128;19.730;2022-07-03T07:35:30;25.30;66.00
38263;DHT22;24054;50.128;19.730;2022-07-03T07:37:57;25.30;66.60
38263;DHT22;24054;50.128;19.730;2022-07-03T07:40:24;25.40;65.90
38263;DHT22;24054;50.128;19.730;2022-07-03T07:42:51;25.40;66.10
38263;DHT22;24054;50.128;19.730;2022-07-03T07:45:18;25.40;65.90
38263;DHT22;24054;50.128;19.730;2022-07-03T07:47:45;25.40;66.00
38263;DHT22;24054;50.128;19.730;2022-07-03T07:50:13;25.40;66.00
38263;DHT22;24054;50.128;19.730;2022-07-03T07:52:41;25.40;66.10
38263;DHT22;24054;50.128;19.730;2022-07-03T07:55:08;25.40;66.00
38263;DHT22;24054;50.128;19.730;2022-07-03T07:57:36;25.40;66.10
38263;DHT22;24054;50.128;19.730;2022-07-03T08:00:07;25.50;66.20
38263;DHT22;24054;50.128;19.730;2022-07-03T08:02:35;25.50;66.20
38263;DHT22;24054;50.128;19.730;2022-07-03T08:05:21;25.50;66.10
38263;DHT22;24054;50.128;19.730;2022-07-03T08:08:04;25.50;66.20
38263;DHT22;24054;50.128;19.730;2022-07-03T08:10:35;25.50;66.10
38263;DHT22;24054;50.128;19.730;2022-07-03T08:13:02;25.50;65.90
38263;DHT22;24054;50.128;19.730;2022-07-03T08:15:29;25.50;66.00
38263;DHT22;24054;50.128;19.730;2022-07-03T08:17:56;25.50;65.90
38263;DHT22;24054;50.128;19.730;2022-07-03T08:20:25;25.50;65.70
38263;DHT22;24054;50.128;19.730;2022-07-03T08:22:52;25.50;64.60
38263;DHT22;24054;50.128;19.730;2022-07-03T08:25:19;25.50;63.40
38263;DHT22;24054;50.128;19.730;2022-07-03T08:27:47;25.40;62.10
38263;DHT22;24054;50.128;19.730;2022-07-03T08:30:15;25.40;61.50
38263;DHT22;24054;50.128;19.730;2022-07-03T08:32:44;25.40;61.70
38263;DHT22;24054;50.128;19.730;2022-07-03T08:35:12;25.40;61.30
38263;DHT22;24054;50.128;19.730;2022-07-03T08:37:41;25.40;60.80
38263;DHT22;24054;50.128;19.730;2022-07-03T08:40:10;25.30;60.40
38263;DHT22;24054;50.128;19.730;2022-07-03T08:42:39;25.30;60.20
38263;DHT22;24054;50.128;19.730;2022-07-03T08:45:13;25.30;60.00
38263;DHT22;24054;50.128;19.730;2022-07-03T08:47:40;25.30;59.70
38263;DHT22;24054;50.128;19.730;2022-07-03T08:50:09;25.30;59.80
38263;DHT22;24054;50.128;19.730;2022-07-03T08:52:41;25.30;59.80
38263;DHT22;24054;50.128;19.730;2022-07-03T08:55:09;25.40;59.80
38263;DHT22;24054;50.128;19.730;2022-07-03T08:57:37;25.30;59.70
38263;DHT22;24054;50.128;19.730;2022-07-03T09:00:08;25.40;59.80
38263;DHT22;24054;50.128;19.730;2022-07-03T09:02:35;25.40;60.00
38263;DHT22;24054;50.128;19.730;2022-07-03T09:05:04;25.40;60.00
38263;DHT22;24054;50.128;19.730;2022-07-03T09:07:35;25.40;60.00
38263;DHT22;24054;50.128;19.730;2022-07-03T09:10:04;25.40;59.90
38263;DHT22;24054;50.128;19.730;2022-07-03T09:12:32;25.40;59.80
38263;DHT22;24054;50.128;19.730;2022-07-03T09:14:59;25.40;59.70
38263;DHT22;24054;50.128;19.730;2022-07-03T09:17:27;25.50;59.40
38263;DHT22;24054;50.128;19.730;2022-07-03T09:19:58;25.50;59.40
38263;DHT22;24054;50.128;19.730;2022-07-03T09:22:26;25.50;59.50
38263;DHT22;24054;50.128;19.730;2022-07-03T09:24:55;25.50;59.70
38263;DHT22;24054;50.128;19.730;2022-07-03T09:27:31;25.50;60.00
38263;DHT22;24054;50.128;19.730;2022-07-03T09:29:59;25.60;60.30
38263;DHT22;24054;50.128;19.730;2022-07-03T09:32:31;25.70;60.50
38263;DHT22;24054;50.128;19.730;2022-07-03T09:35:17;25.70;60.50
38263;DHT22;24054;50.128;19.730;2022-07-03T09:37:49;25.60;58.80
38263;DHT22;24054;50.128;19.730;2022-07-03T09:40:17;25.60;59.00
38263;DHT22;24054;50.128;19.730;2022-07-03T09:43:02;25.50;58.60
38263;DHT22;24054;50.128;19.730;2022-07-03T09:45:49;25.50;58.60
38263;DHT22;24054;50.128;19.730;2022-07-03T09:48:28;25.60;58.60
38263;DHT22;24054;50.128;19.730;2022-07-03T09:51:14;25.60;58.60
38263;DHT22;24054;50.128;19.730;2022-07-03T09:53:59;25.60;58.60
38263;DHT22;24054;50.128;19.730;2022-07-03T09:56:28;25.70;59.10
38263;DHT22;24054;50.128;19.730;2022-07-03T09:59:05;25.70;59.20
38263;DHT22;24054;50.128;19.730;2022-07-03T10:01:33;25.70;59.40
38263;DHT22;24054;50.128;19.730;2022-07-03T10:04:10;25.70;59.60
38263;DHT22;24054;50.128;19.730;2022-07-03T10:06:51;25.70;59.60
38263;DHT22;24054;50.128;19.730;2022-07-03T10:09:21;25.80;59.80
38263;DHT22;24054;50.128;19.730;2022-07-03T10:11:48;25.80;59.90
38263;DHT22;24054;50.128;19.730;2022-07-03T10:14:18;25.80;59.90
38263;DHT22;24054;50.128;19.730;2022-07-03T10:16:47;25.90;60.00
38263;DHT22;24054;50.128;19.730;2022-07-03T10:19:17;25.90;60.20
38263;DHT22;24054;50.128;19.730;2022-07-03T10:21:49;25.90;59.90
38263;DHT22;24054;50.128;19.730;2022-07-03T10:24:18;25.90;59.90
38263;DHT22;24054;50.128;19.730;2022-07-03T10:26:46;25.90;59.80
38263;DHT22;24054;50.128;19.730;2022-07-03T10:29:14;26.00;59.80
38263;DHT22;24054;50.128;19.730;2022-07-03T10:31:46;26.00;59.80
38263;DHT22;24054;50.128;19.730;2022-07-03T10:34:18;26.10;59.90
38263;DHT22;24054;50.128;19.730;2022-07-03T10:36:47;26.10;60.00
38263;DHT22;24054;50.128;19.730;2022-07-03T10:39:45;26.10;59.50
38263;DHT22;24054;50.128;19.730;2022-07-03T10:42:22;26.10;59.40
38263;DHT22;24054;50.128;19.730;2022-07-03T10:45:09;26.10;59.10
38263;DHT22;24054;50.128;19.730;2022-07-03T10:47:46;26.10;59.10
38263;DHT22;24054;50.128;19.730;2022-07-03T10:50:16;26.20;58.70
38263;DHT22;24054;50.128;19.730;2022-07-03T10:52:44;26.20;58.80
38263;DHT22;24054;50.128;19.730;2022-07-03T10:55:13;26.20;58.50
38263;DHT22;24054;50.128;19.730;2022-07-03T10:57:41;26.20;58.20
38263;DHT22;24054;50.128;19.730;2022-07-03T11:00:16;26.30;58.30
38263;DHT22;24054;50.128;19.730;2022-07-03T11:02:47;26.30;58.40
38263;DHT22;24054;50.128;19.730;2022-07-03T11:05:25;26.30;58.40
38263;DHT22;24054;50.128;19.730;2022-07-03T11:08:03;26.30;57.60
38263;DHT22;24054;50.128;19.730;2022-07-03T11:10:36;26.30;57.50
38263;DHT22;24054;50.128;19.730;2022-07-03T11:13:15;26.40;57.50
38263;DHT22;24054;50.128;19.730;2022-07-03T11:15:45;26.40;57.70
38263;DHT22;24054;50.128;19.730;2022-07-03T11:18:19;26.40;57.50
38263;DHT22;24054;50.128;19.730;2022-07-03T11:21:12;26.30;54.60
38263;DHT22;24054;50.128;19.730;2022-07-03T11:24:02;26.30;55.10
38263;DHT22;24054;50.128;19.730;2022-07-03T11:26:34;26.20;55.60
38263;DHT22;24054;50.128;19.730;2022-07-03T11:29:01;26.30;55.80
38263;DHT22;24054;50.128;19.730;2022-07-03T11:31:29;26.30;56.20
38263;DHT22;24054;50.128;19.730;2022-07-03T11:34:01;26.30;55.40
38263;DHT22;24054;50.128;19.730;2022-07-03T11:36:30;26.30;55.70
38263;DHT22;24054;50.128;19.730;2022-07-03T11:39:05;26.40;56.20
38263;DHT22;24054;50.128;19.730;2022-07-03T11:41:45;26.30;56.30
38263;DHT22;24054;50.128;19.730;2022-07-03T11:44:19;26.30;56.10
38263;DHT22;24054;50.128;19.730;2022-07-03T11:46:51;26.30;54.90
38263;DHT22;24054;50.128;19.730;2022-07-03T11:49:22;26.30;55.40
38263;DHT22;24054;50.128;19.730;2022-07-03T11:51:56;26.30;55.00
38263;DHT22;24054;50.128;19.730;2022-07-03T11:54:24;26.20;54.60
38263;DHT22;24054;50.128;19.730;2022-07-03T11:56:52;26.10;54.50
38263;DHT22;24054;50.128;19.730;2022-07-03T11:59:20;26.10;55.00
38263;DHT22;24054;50.128;19.730;2022-07-03T12:01:48;26.10;55.40
38263;DHT22;24054;50.128;19.730;2022-07-03T12:04:17;26.10;55.70
38263;DHT22;24054;50.128;19.730;2022-07-03T12:06:47;26.10;54.80
38263;DHT22;24054;50.128;19.730;2022-07-03T12:09:17;26.00;55.30
38263;DHT22;24054;50.128;19.730;2022-07-03T12:11:56;26.10;55.20
38263;DHT22;24054;50.128;19.730;2022-07-03T12:14:37;26.10;55.90
38263;DHT22;24054;50.128;19.730;2022-07-03T12:17:06;26.10;55.20
38263;DHT22;24054;50.128;19.730;2022-07-03T12:19:34;26.10;55.60
38263;DHT22;24054;50.128;19.730;2022-07-03T12:22:03;26.10;55.70
38263;DHT22;24054;50.128;19.730;2022-07-03T12:24:31;26.20;56.10
38263;DHT22;24054;50.128;19.730;2022-07-03T12:27:02;26.20;56.40
38263;DHT22;24054;50.128;19.730;2022-07-03T12:29:31;26.20;56.20
38263;DHT22;24054;50.128;19.730;2022-07-03T12:31:59;26.30;56.50
38263;DHT22;24054;50.128;19.730;2022-07-03T12:34:26;26.30;56.50
38263;DHT22;24054;50.128;19.730;2022-07-03T12:36:55;26.40;56.50
38263;DHT22;24054;50.128;19.730;2022-07-03T12:39:41;26.40;56.60
38263;DHT22;24054;50.128;19.730;2022-07-03T12:42:19;26.40;56.50
38263;DHT22;24054;50.128;19.730;2022-07-03T12:44:59;26.40;56.10
38263;DHT22;24054;50.128;19.730;2022-07-03T12:47:28;26.40;56.40
38263;DHT22;24054;50.128;19.730;2022-07-03T12:49:59;26.30;56.30
38263;DHT22;24054;50.128;19.730;2022-07-03T12:52:28;26.30;56.50
38263;DHT22;24054;50.128;19.730;2022-07-03T12:55:00;26.30;56.60
38263;DHT22;24054;50.128;19.730;2022-07-03T12:57:28;26.30;56.80
38263;DHT22;24054;50.128;19.730;2022-07-03T13:00:15;26.30;56.90
38263;DHT22;24054;50.128;19.730;2022-07-03T13:02:43;26.30;56.90
38263;DHT22;24054;50.128;19.730;2022-07-03T13:05:14;26.30;56.80
38263;DHT22;24054;50.128;19.730;2022-07-03T13:07:43;26.20;56.70
38263;DHT22;24054;50.128;19.730;2022-07-03T13:10:13;26.30;56.70
38263;DHT22;24054;50.128;19.730;2022-07-03T13:12:49;26.20;56.50
38263;DHT22;24054;50.128;19.730;2022-07-03T13:15:20;26.20;56.30
38263;DHT22;24054;50.128;19.730;2022-07-03T13:17:58;26.20;56.30
38263;DHT22;24054;50.128;19.730;2022-07-03T13:20:27;26.20;56.30
38263;DHT22;24054;50.128;19.730;2022-07-03T13:22:56;26.20;55.80
38263;DHT22;24054;50.128;19.730;2022-07-03T13:25:25;26.10;55.50
38263;DHT22;24054;50.128;19.730;2022-07-03T13:28:03;26.10;55.30
38263;DHT22;24054;50.128;19.730;2022-07-03T13:30:31;26.10;55.20
38263;DHT22;24054;50.128;19.730;2022-07-03T13:32:59;26.10;55.10
38263;DHT22;24054;50.128;19.730;2022-07-03T13:35:26;26.10;54.90
38263;DHT22;24054;50.128;19.730;2022-07-03T13:37:54;26.10;54.60
38263;DHT22;24054;50.128;19.730;2022-07-03T13:40:21;26.00;54.30
38263;DHT22;24054;50.128;19.730;2022-07-03T13:42:50;26.00;54.20
38263;DHT22;24054;50.128;19.730;2022-07-03T13:45:17;26.00;54.00
38263;DHT22;24054;50.128;19.730;2022-07-03T13:47:44;25.90;54.10
38263;DHT22;24054;50.128;19.730;2022-07-03T13:50:12;25.90;53.50
38263;DHT22;24054;50.128;19.730;2022-07-03T13:52:39;25.90;53.50
38263;DHT22;24054;50.128;19.730;2022-07-03T13:55:07;25.90;53.30
38263;DHT22;24054;50.128;19.730;2022-07-03T13:57:35;25.90;53.20
38263;DHT22;24054;50.128;19.730;2022-07-03T14:00:05;25.90;53.10
38263;DHT22;24054;50.128;19.730;2022-07-03T14:02:33;27.00;53.70
38263;DHT22;24054;50.128;19.730;2022-07-03T14:05:01;25.80;52.70
38263;DHT22;24054;50.128;19.730;2022-07-03T14:07:29;25.80;52.70
38263;DHT22;24054;50.128;19.730;2022-07-03T14:09:57;25.80;53.10
38263;DHT22;24054;50.128;19.730;2022-07-03T14:12:24;25.80;53.30
38263;DHT22;24054;50.128;19.730;2022-07-03T14:14:51;25.80;53.60
38263;DHT22;24054;50.128;19.730;2022-07-03T14:17:20;25.80;53.70
38263;DHT22;24054;50.128;19.730;2022-07-03T14:19:47;25.90;53.80
38263;DHT22;24054;50.128;19.730;2022-07-03T14:22:15;25.90;53.90
38263;DHT22;24054;50.128;19.730;2022-07-03T14:24:42;25.90;54.10
38263;DHT22;24054;50.128;19.730;2022-07-03T14:27:09;25.90;54.30
38263;DHT22;24054;50.128;19.730;2022-07-03T14:29:54;25.90;54.40
38263;DHT22;24054;50.128;19.730;2022-07-03T14:32:40;25.90;54.40
38263;DHT22;24054;50.128;19.730;2022-07-03T14:35:08;25.90;54.00
38263;DHT22;24054;50.128;19.730;2022-07-03T14:37:35;25.90;53.50
38263;DHT22;24054;50.128;19.730;2022-07-03T14:40:03;25.90;53.40
38263;DHT22;24054;50.128;19.730;2022-07-03T14:42:31;25.90;53.30
38263;DHT22;24054;50.128;19.730;2022-07-03T14:44:58;25.90;53.70
38263;DHT22;24054;50.128;19.730;2022-07-03T14:47:26;25.80;53.70
38263;DHT22;24054;50.128;19.730;2022-07-03T14:49:55;25.80;53.40
38263;DHT22;24054;50.128;19.730;2022-07-03T14:52:22;25.80;53.20
38263;DHT22;24054;50.128;19.730;2022-07-03T14:54:50;25.70;52.80
38263;DHT22;24054;50.128;19.730;2022-07-03T14:57:25;25.70;52.80
38263;DHT22;24054;50.128;19.730;2022-07-03T15:00:02;25.70;52.50
38263;DHT22;24054;50.128;19.730;2022-07-03T15:02:38;25.60;52.30
38263;DHT22;24054;50.128;19.730;2022-07-03T15:05:10;25.70;52.30
38263;DHT22;24054;50.128;19.730;2022-07-03T15:07:40;25.60;52.10
38263;DHT22;24054;50.128;19.730;2022-07-03T15:10:10;25.60;52.10
38263;DHT22;24054;50.128;19.730;2022-07-03T15:12:42;25.60;51.90
38263;DHT22;24054;50.128;19.730;2022-07-03T15:15:11;25.60;51.70
38263;DHT22;24054;50.128;19.730;2022-07-03T15:17:38;25.50;51.60
38263;DHT22;24054;50.128;19.730;2022-07-03T15:20:11;25.50;51.70
38263;DHT22;24054;50.128;19.730;2022-07-03T15:22:40;25.50;51.60
38263;DHT22;24054;50.128;19.730;2022-07-03T15:25:09;25.50;51.90
38263;DHT22;24054;50.128;19.730;2022-07-03T15:27:37;25.50;52.10
38263;DHT22;24054;50.128;19.730;2022-07-03T15:30:06;25.50;52.00
38263;DHT22;24054;50.128;19.730;2022-07-03T15:32:34;25.50;51.70
38263;DHT22;24054;50.128;19.730;2022-07-03T15:35:02;25.50;51.60